»·PEaware :: N800DW KEUG-CYYJ

N800DW :: KEUG-CYYJ

FLIGHT INFORMATION

Flight Status: Arrived
Operator: Privately registered:
United States
More flights under this callsign
Pilot: Scott L. (17677)
Aircraft: BEECH AIRCRAFT BARON
(BE58)
More flights by this aircraft type
Origin: KEUG Mahlon Sweet
United States
Destination: CYYJ Victoria Intl
Canada
More flights between these airports :: More routes between these airports
Route: EUG9 ALFOR V23 MALAY V287 ARPEE V165 DIGGN V495 CONDI
File this flight plan on PilotEdge
Remarks:
Altitude:
(Current/Filed)
10,000ft
Speed:
(Current/Filed)
180kts
Departed: 30-Aug-18 06:31 PM
Arrived: 30-Aug-18 08:16 PM
Distance/Time
Traveled:
272nm/1:45
Distance/Time
To Go:
Arrived

Flight Plot

Page will automatically refresh every two minutes.

Flight plan parsing failed; only flown route is shown


Map Options




Map Legend


Flown Route
Filed Route
Departure Airport
Arrival Airport
Navaid (VOR, NDB)
Fix

Horizontal Profiles

Position Reports

Time Latitude Longitude Heading Altitude Ground
Speed
30-Aug-18 18:19 44.115990 -123.215887 299 361ft 0kts
30-Aug-18 18:20 44.115990 -123.215887 299 361ft 0kts
30-Aug-18 18:21 44.115990 -123.215887 299 361ft 0kts
30-Aug-18 18:22 44.115990 -123.215887 299 361ft 0kts
30-Aug-18 18:23 44.115990 -123.215887 299 361ft 0kts
30-Aug-18 18:24 44.115990 -123.215887 299 361ft 0kts
30-Aug-18 18:25 44.115990 -123.215887 299 361ft 0kts
30-Aug-18 18:26 44.115990 -123.215887 299 361ft 0kts
30-Aug-18 18:27 44.115990 -123.215887 299 361ft 0kts
30-Aug-18 18:28 44.117778 -123.215774 33 361ft 19kts
30-Aug-18 18:29 44.123760 -123.217070 359 361ft 28kts
30-Aug-18 18:30 44.130010 -123.218041 308 361ft 0kts
30-Aug-18 18:31 44.130010 -123.218041 308 361ft 0kts
30-Aug-18 18:32 44.123390 -123.219204 176 361ft 108kts
30-Aug-18 18:33 44.084989 -123.213737 176 1317ft 152kts
30-Aug-18 18:34 44.043738 -123.207580 176 2684ft 144kts
30-Aug-18 18:35 44.004366 -123.201163 176 4009ft 142kts
30-Aug-18 18:36 43.965621 -123.193364 155 5240ft 143kts
30-Aug-18 18:37 43.976283 -123.157700 340 6336ft 141kts
30-Aug-18 18:38 44.015236 -123.163426 355 7419ft 143kts
30-Aug-18 18:39 44.054915 -123.162195 356 8434ft 143kts
30-Aug-18 18:40 44.094189 -123.160687 356 9375ft 143kts
30-Aug-18 18:41 44.134062 -123.159145 356 10098ft 155kts
30-Aug-18 18:42 44.181752 -123.157218 357 10084ft 181kts
30-Aug-18 18:43 44.232730 -123.155099 357 10082ft 185kts
30-Aug-18 18:44 44.284094 -123.153009 357 10081ft 185kts
30-Aug-18 18:45 44.335117 -123.141899 11 10082ft 188kts
30-Aug-18 18:46 44.385452 -123.122709 11 10082ft 188kts
30-Aug-18 18:47 44.435785 -123.103535 11 10082ft 187kts
30-Aug-18 18:48 44.485690 -123.084501 11 10082ft 186kts
30-Aug-18 18:49 44.535376 -123.065527 11 10079ft 186kts
30-Aug-18 18:50 44.585280 -123.046428 11 10083ft 186kts
30-Aug-18 18:51 44.635618 -123.027151 11 10079ft 190kts
30-Aug-18 18:52 44.686875 -123.007450 11 10070ft 192kts
30-Aug-18 18:54 44.738648 -122.987521 12 10062ft 193kts
30-Aug-18 18:55 44.790498 -122.967526 12 10057ft 194kts
30-Aug-18 18:56 44.842534 -122.947415 12 10055ft 194kts
30-Aug-18 18:57 44.894560 -122.927277 12 10055ft 194kts
30-Aug-18 18:57 44.937897 -122.910477 12 10056ft 194kts
30-Aug-18 18:59 44.998299 -122.887021 12 10057ft 194kts
30-Aug-18 18:59 45.040991 -122.870349 11 10056ft 185kts
30-Aug-18 19:00 45.089557 -122.851453 10 10060ft 179kts
30-Aug-18 19:02 45.144527 -122.830010 10 10065ft 179kts
30-Aug-18 19:02 45.185057 -122.814156 9 10063ft 185kts
30-Aug-18 19:04 45.243142 -122.791411 10 10064ft 187kts
30-Aug-18 19:04 45.284943 -122.774998 10 10066ft 187kts
30-Aug-18 19:05 45.334919 -122.755325 10 10064ft 186kts
30-Aug-18 19:06 45.384294 -122.735880 10 10067ft 184kts
30-Aug-18 19:07 45.433186 -122.716577 10 10066ft 182kts
30-Aug-18 19:08 45.481884 -122.697322 9 10064ft 181kts
30-Aug-18 19:09 45.530383 -122.678118 10 10066ft 181kts
30-Aug-18 19:10 45.578351 -122.659082 9 10067ft 181kts
30-Aug-18 19:11 45.626871 -122.639800 10 10064ft 181kts
30-Aug-18 19:12 45.675311 -122.620518 10 10061ft 181kts
30-Aug-18 19:13 45.723820 -122.601152 10 10063ft 181kts
30-Aug-18 19:14 45.772253 -122.597669 345 10065ft 175kts
30-Aug-18 19:15 45.819974 -122.609467 345 10064ft 174kts
30-Aug-18 19:16 45.867503 -122.621296 345 10064ft 173kts
30-Aug-18 19:17 45.914897 -122.633105 345 10064ft 173kts
30-Aug-18 19:18 45.962398 -122.644963 345 10064ft 173kts
30-Aug-18 19:19 46.009726 -122.656793 345 10064ft 173kts
30-Aug-18 19:20 46.056984 -122.668626 345 10082ft 173kts
30-Aug-18 19:21 46.103188 -122.680222 345 10083ft 173kts
30-Aug-18 19:22 46.145202 -122.690783 345 10084ft 174kts
30-Aug-18 19:23 46.192670 -122.702728 345 10084ft 174kts
30-Aug-18 19:24 46.240367 -122.714755 345 10084ft 174kts
30-Aug-18 19:25 46.287933 -122.726769 345 10083ft 174kts
30-Aug-18 19:26 46.335467 -122.738798 345 10083ft 174kts
30-Aug-18 19:27 46.383014 -122.750849 345 10083ft 174kts
30-Aug-18 19:28 46.430668 -122.762951 345 10083ft 174kts
30-Aug-18 19:29 46.478169 -122.775036 345 10083ft 173kts
30-Aug-18 19:30 46.525742 -122.787167 345 10083ft 173kts
30-Aug-18 19:31 46.573096 -122.799252 345 10083ft 173kts
30-Aug-18 19:32 46.620635 -122.811409 345 10082ft 173kts
30-Aug-18 19:33 46.668222 -122.823603 345 10082ft 173kts
30-Aug-18 19:34 46.715617 -122.835769 345 10082ft 173kts
30-Aug-18 19:35 46.763195 -122.848002 345 10082ft 173kts
30-Aug-18 19:36 46.810685 -122.860237 345 10082ft 173kts
30-Aug-18 19:37 46.858200 -122.872499 345 10082ft 173kts
30-Aug-18 19:38 46.905670 -122.884772 345 10082ft 173kts
30-Aug-18 19:39 46.953169 -122.897075 345 10081ft 173kts
30-Aug-18 19:40 47.001593 -122.897788 0 10063ft 178kts
30-Aug-18 19:41 47.050644 -122.891103 0 10063ft 177kts
30-Aug-18 19:42 47.099760 -122.884398 0 10063ft 177kts
30-Aug-18 19:43 47.145588 -122.878131 0 10065ft 177kts
30-Aug-18 19:44 47.194736 -122.871398 0 10065ft 178kts
30-Aug-18 19:45 47.243792 -122.864667 0 10056ft 178kts
30-Aug-18 19:46 47.292976 -122.857901 0 10055ft 177kts
30-Aug-18 19:47 47.341971 -122.851150 0 10055ft 177kts
30-Aug-18 19:48 47.391083 -122.844371 0 10055ft 177kts
30-Aug-18 19:49 47.440262 -122.837570 0 10055ft 177kts
30-Aug-18 19:50 47.489252 -122.830789 0 10055ft 177kts
30-Aug-18 19:51 47.538311 -122.823973 0 10055ft 177kts
30-Aug-18 19:52 47.587203 -122.817174 0 10055ft 177kts
30-Aug-18 19:53 47.636289 -122.810334 0 10055ft 177kts
30-Aug-18 19:54 47.685230 -122.803503 0 10055ft 177kts
30-Aug-18 19:55 47.734303 -122.796639 0 10055ft 177kts
30-Aug-18 19:56 47.783325 -122.789772 0 10055ft 177kts
30-Aug-18 19:57 47.831745 -122.782972 0 10054ft 177kts
30-Aug-18 19:58 47.880651 -122.776094 0 10063ft 177kts
30-Aug-18 19:59 47.929671 -122.769188 0 10063ft 177kts
30-Aug-18 20:00 47.973492 -122.791117 326 10063ft 170kts
30-Aug-18 20:01 48.014002 -122.827206 326 10063ft 169kts
30-Aug-18 20:02 48.054383 -122.863675 325 10089ft 171kts
30-Aug-18 20:03 48.095313 -122.900842 325 10089ft 173kts
30-Aug-18 20:04 48.133755 -122.935797 325 10088ft 174kts
30-Aug-18 20:05 48.173777 -122.972252 325 10085ft 174kts
30-Aug-18 20:06 48.215406 -123.010240 326 10078ft 175kts
30-Aug-18 20:07 48.259880 -123.050872 326 9115ft 207kts
30-Aug-18 20:08 48.309562 -123.096383 326 7800ft 213kts
30-Aug-18 20:09 48.357865 -123.140741 327 6732ft 211kts
30-Aug-18 20:10 48.407859 -123.186761 327 5655ft 211kts
30-Aug-18 20:11 48.457617 -123.232672 326 4607ft 211kts
30-Aug-18 20:12 48.507670 -123.278958 326 3574ft 212kts
30-Aug-18 20:13 48.559797 -123.321011 341 2550ft 216kts
30-Aug-18 20:14 48.604277 -123.344202 328 1389ft 121kts
30-Aug-18 20:15 48.626552 -123.371426 318 1174ft 105kts
30-Aug-18 20:16 48.645921 -123.408438 283 276ft 111kts
30-Aug-18 20:17 48.651086 -123.430208 333 60ft 0kts

Navigation Log

Ident Type
Flight plan parsing failed, navigation log unavailable